createdAt,value
2018-09-29T00:00:55.305Z,8.40
2018-09-29T00:03:23.427Z,8.50
2018-09-29T00:05:51.544Z,8.50
2018-09-29T00:08:19.664Z,8.60
2018-09-29T00:10:47.781Z,8.50
2018-09-29T00:13:15.907Z,8.50
2018-09-29T00:15:44.025Z,8.50
2018-09-29T00:18:12.165Z,8.50
2018-09-29T00:20:40.278Z,8.30
2018-09-29T00:23:08.402Z,8.20
2018-09-29T00:25:36.523Z,8.20
2018-09-29T00:28:04.937Z,8.30
2018-09-29T00:30:33.078Z,8.20
2018-09-29T00:33:01.222Z,8.20
2018-09-29T00:35:29.337Z,8.10
2018-09-29T00:37:57.458Z,7.90
2018-09-29T00:40:25.595Z,7.90
2018-09-29T00:42:53.779Z,7.90
2018-09-29T00:45:21.978Z,7.90
2018-09-29T00:47:50.095Z,7.80
2018-09-29T00:50:18.218Z,7.70
2018-09-29T00:52:46.343Z,7.70
2018-09-29T00:55:14.474Z,7.70
2018-09-29T00:57:42.590Z,7.70
2018-09-29T01:00:10.709Z,7.70
2018-09-29T01:02:38.831Z,7.60
2018-09-29T01:05:06.955Z,7.50
2018-09-29T01:07:35.070Z,7.50
2018-09-29T01:10:03.203Z,7.50
2018-09-29T01:12:31.322Z,7.50
2018-09-29T01:14:59.451Z,7.50
2018-09-29T01:17:27.571Z,7.60
2018-09-29T01:19:55.702Z,7.60
2018-09-29T01:22:23.819Z,7.60
2018-09-29T01:24:51.950Z,7.60
2018-09-29T01:27:20.067Z,7.50
2018-09-29T01:29:48.201Z,7.50
2018-09-29T01:32:16.437Z,7.50
2018-09-29T01:34:44.570Z,7.40
2018-09-29T01:37:12.695Z,7.30
2018-09-29T01:39:40.831Z,7.30
2018-09-29T01:42:08.953Z,7.30
2018-09-29T01:44:37.089Z,7.40
2018-09-29T01:47:05.218Z,7.40
2018-09-29T01:49:33.360Z,7.40
2018-09-29T01:52:01.486Z,7.30
2018-09-29T01:54:29.725Z,7.30
2018-09-29T01:56:57.863Z,7.30
2018-09-29T01:59:25.994Z,7.20
2018-09-29T02:01:54.119Z,7.20
2018-09-29T02:04:22.254Z,7.20
2018-09-29T02:06:50.374Z,7.20
2018-09-29T02:09:18.526Z,7.10
2018-09-29T02:11:46.634Z,7.10
2018-09-29T02:14:14.778Z,7.10
2018-09-29T02:16:42.914Z,7.10
2018-09-29T02:19:11.041Z,7.00
2018-09-29T02:21:39.166Z,7.10
2018-09-29T02:24:07.565Z,7.10
2018-09-29T02:26:35.698Z,6.90
2018-09-29T02:29:03.905Z,6.90
2018-09-29T02:31:31.975Z,6.90
2018-09-29T02:34:00.103Z,6.80
2018-09-29T02:36:28.231Z,6.60
2018-09-29T02:38:56.346Z,6.50
2018-09-29T02:41:24.470Z,6.50
2018-09-29T02:43:52.592Z,6.60
2018-09-29T02:46:20.714Z,6.60
2018-09-29T02:48:48.832Z,6.60
2018-09-29T02:51:16.965Z,6.70
2018-09-29T02:53:45.093Z,6.70
2018-09-29T02:56:13.214Z,6.70
2018-09-29T02:58:41.330Z,6.70
2018-09-29T03:01:09.458Z,6.60
2018-09-29T03:03:37.579Z,6.60
2018-09-29T03:06:05.711Z,6.60
2018-09-29T03:08:33.830Z,6.60
2018-09-29T03:11:01.954Z,6.60
2018-09-29T03:13:30.083Z,6.60
2018-09-29T03:15:58.303Z,6.60
2018-09-29T03:18:26.411Z,6.50
2018-09-29T03:20:54.537Z,6.40
2018-09-29T03:23:22.653Z,6.40
2018-09-29T03:25:50.786Z,6.40
2018-09-29T03:28:18.902Z,6.40
2018-09-29T03:30:47.073Z,6.40
2018-09-29T03:33:15.187Z,6.40
2018-09-29T03:35:43.316Z,6.50
2018-09-29T03:38:11.530Z,6.30
2018-09-29T03:40:39.668Z,6.10
2018-09-29T03:43:07.826Z,6.00
2018-09-29T03:45:35.954Z,6.00
2018-09-29T03:48:04.101Z,6.00
2018-09-29T03:50:32.213Z,6.10
2018-09-29T03:53:00.330Z,6.10
2018-09-29T03:55:28.594Z,6.20
2018-09-29T03:57:56.718Z,6.20
2018-09-29T04:00:24.847Z,6.20
2018-09-29T04:02:52.965Z,6.20
2018-09-29T04:05:21.142Z,6.20
2018-09-29T04:07:49.242Z,6.20
2018-09-29T04:10:17.446Z,6.20
2018-09-29T04:12:45.576Z,6.20
2018-09-29T04:15:13.691Z,6.20
2018-09-29T04:17:41.819Z,6.00
2018-09-29T04:20:09.938Z,5.90
2018-09-29T04:22:38.098Z,5.90
2018-09-29T04:25:06.337Z,5.90
2018-09-29T04:27:34.457Z,5.90
2018-09-29T04:30:02.590Z,5.80
2018-09-29T04:32:30.763Z,5.70
2018-09-29T04:34:58.911Z,5.80
2018-09-29T04:37:27.073Z,5.80
2018-09-29T04:39:55.277Z,5.60
2018-09-29T04:42:23.411Z,5.40
2018-09-29T04:44:51.530Z,5.40
2018-09-29T04:47:19.667Z,5.40
2018-09-29T04:49:47.790Z,5.50
2018-09-29T04:52:15.928Z,5.60
2018-09-29T04:54:44.128Z,5.70
2018-09-29T04:57:12.271Z,5.70
2018-09-29T04:59:40.395Z,5.70
2018-09-29T05:02:08.530Z,5.60
2018-09-29T05:04:36.654Z,5.40
2018-09-29T05:07:04.785Z,5.50
2018-09-29T05:09:32.917Z,5.50
2018-09-29T05:12:01.058Z,5.50
2018-09-29T05:14:29.178Z,5.60
2018-09-29T05:16:57.337Z,5.80
2018-09-29T05:19:25.454Z,5.90
2018-09-29T05:21:53.626Z,5.90
2018-09-29T05:24:21.747Z,5.90
2018-09-29T05:26:49.881Z,5.90
2018-09-29T05:29:18.041Z,5.80
2018-09-29T05:31:46.178Z,5.70
2018-09-29T05:34:14.318Z,5.70
2018-09-29T05:36:42.439Z,5.60
2018-09-29T05:39:10.718Z,5.40
2018-09-29T05:41:38.853Z,5.30
2018-09-29T05:44:07.058Z,5.10
2018-09-29T05:46:35.179Z,5.10
2018-09-29T05:49:03.311Z,5.10
2018-09-29T05:51:31.710Z,5.20
2018-09-29T05:53:59.939Z,5.20
2018-09-29T05:56:27.962Z,5.30
2018-09-29T05:58:56.191Z,5.40
2018-09-29T06:01:24.294Z,5.40
2018-09-29T06:03:52.444Z,5.50
2018-09-29T06:06:20.541Z,5.70
2018-09-29T06:08:48.670Z,5.80
2018-09-29T06:11:16.790Z,5.90
2018-09-29T06:13:44.918Z,6.00
2018-09-29T06:16:13.032Z,6.10
2018-09-29T06:18:41.155Z,6.20
2018-09-29T06:21:09.272Z,6.20
2018-09-29T06:23:37.771Z,6.30
2018-09-29T06:26:05.935Z,6.10
2018-09-29T06:28:34.061Z,6.00
2018-09-29T06:31:02.179Z,5.90
2018-09-29T06:33:30.315Z,6.00
2018-09-29T06:35:58.438Z,6.00
2018-09-29T06:38:26.575Z,6.20
2018-09-29T06:40:54.772Z,6.30
2018-09-29T06:43:22.881Z,6.40
2018-09-29T06:45:51.110Z,6.50
2018-09-29T06:48:19.403Z,6.60
2018-09-29T06:50:47.514Z,6.70
2018-09-29T06:53:15.642Z,6.80
2018-09-29T06:55:43.759Z,6.90
2018-09-29T06:58:11.875Z,7.00
2018-09-29T07:00:40.010Z,7.10
2018-09-29T07:03:08.172Z,7.10
2018-09-29T07:05:36.269Z,7.20
2018-09-29T07:08:04.402Z,7.20
2018-09-29T07:10:32.575Z,7.30
2018-09-29T07:13:00.758Z,7.40
2018-09-29T07:15:28.895Z,7.40
2018-09-29T07:17:57.040Z,7.50
2018-09-29T07:20:25.182Z,7.70
2018-09-29T07:22:53.311Z,7.80
2018-09-29T07:25:21.535Z,7.90
2018-09-29T07:27:49.670Z,8.00
2018-09-29T07:30:17.791Z,8.10
2018-09-29T07:32:45.934Z,8.20
2018-09-29T07:35:14.078Z,8.40
2018-09-29T07:37:42.246Z,8.40
2018-09-29T07:40:10.399Z,8.50
2018-09-29T07:42:38.543Z,8.70
2018-09-29T07:45:06.684Z,8.70
2018-09-29T07:47:34.887Z,8.80
2018-09-29T07:50:03.067Z,9.00
2018-09-29T07:52:31.181Z,9.10
2018-09-29T07:54:59.603Z,9.20
2018-09-29T07:57:27.747Z,9.30
2018-09-29T07:59:55.891Z,9.30
2018-09-29T08:02:24.014Z,9.40
2018-09-29T08:04:52.156Z,9.60
2018-09-29T08:07:20.306Z,9.90
2018-09-29T08:09:48.482Z,10.10
2018-09-29T08:12:16.619Z,10.10
2018-09-29T08:14:44.757Z,10.40
2018-09-29T08:17:12.890Z,10.70
2018-09-29T08:19:41.022Z,11.00
2018-09-29T08:22:09.166Z,11.30
2018-09-29T08:24:37.404Z,11.40
2018-09-29T08:27:05.542Z,11.40
2018-09-29T08:29:33.666Z,11.30
2018-09-29T08:32:01.803Z,11.30
2018-09-29T08:34:29.955Z,11.40
2018-09-29T08:36:58.099Z,11.50
2018-09-29T08:39:26.269Z,11.60
2018-09-29T08:41:54.358Z,11.70
2018-09-29T08:44:22.490Z,11.90
2018-09-29T08:46:50.704Z,12.10
2018-09-29T08:49:18.758Z,12.30
2018-09-29T08:51:46.991Z,12.40
2018-09-29T08:54:15.107Z,12.50
2018-09-29T08:56:43.254Z,12.70
2018-09-29T08:59:11.382Z,12.80
2018-09-29T09:01:39.525Z,12.80
2018-09-29T09:04:07.734Z,12.90
2018-09-29T09:06:35.798Z,13.00
2018-09-29T09:09:05.426Z,13.10
2018-09-29T09:11:33.575Z,13.20
2018-09-29T09:14:01.705Z,13.40
2018-09-29T09:16:29.855Z,13.60
2018-09-29T09:18:57.983Z,13.70
2018-09-29T09:21:26.122Z,13.80
2018-09-29T09:23:54.311Z,14.00
2018-09-29T09:26:22.437Z,14.00
2018-09-29T09:28:50.560Z,13.90
2018-09-29T09:31:18.718Z,13.80
2018-09-29T09:33:46.871Z,13.80
2018-09-29T09:36:15.027Z,13.90
2018-09-29T09:38:43.289Z,13.90
2018-09-29T09:41:11.421Z,14.10
2018-09-29T09:43:39.638Z,14.20
2018-09-29T09:46:07.719Z,14.30
2018-09-29T09:48:35.858Z,14.30
2018-09-29T09:51:04.025Z,14.30
2018-09-29T09:53:32.146Z,14.30
2018-09-29T09:56:00.295Z,14.30
2018-09-29T09:58:28.432Z,14.30
2018-09-29T10:01:01.943Z,14.50
2018-09-29T10:03:31.786Z,14.50
2018-09-29T10:05:59.927Z,14.50
2018-09-29T10:08:28.247Z,14.50
2018-09-29T10:10:56.407Z,14.70
2018-09-29T10:13:24.554Z,14.80
2018-09-29T10:15:52.872Z,14.80
2018-09-29T10:18:21.023Z,14.90
2018-09-29T10:20:49.154Z,14.90
2018-09-29T10:23:17.299Z,15.00
2018-09-29T10:25:45.423Z,15.10
2018-09-29T10:28:13.572Z,15.20
2018-09-29T10:30:41.733Z,15.40
2018-09-29T10:33:09.881Z,15.40
2018-09-29T10:35:38.011Z,15.50
2018-09-29T10:38:06.171Z,15.30
2018-09-29T10:40:34.293Z,15.20
2018-09-29T10:43:02.439Z,15.20
2018-09-29T10:45:30.570Z,15.30
2018-09-29T10:47:58.709Z,15.40
2018-09-29T10:50:26.845Z,15.60
2018-09-29T10:52:55.078Z,15.70
2018-09-29T10:55:23.306Z,15.70
2018-09-29T10:57:51.449Z,15.80
2018-09-29T11:00:19.578Z,15.90
2018-09-29T11:02:47.777Z,16.00
2018-09-29T11:05:15.894Z,15.70
2018-09-29T11:07:44.058Z,15.70
2018-09-29T11:10:12.190Z,15.90
2018-09-29T11:12:40.345Z,16.10
2018-09-29T11:15:08.500Z,16.20
2018-09-29T11:17:36.676Z,16.30
2018-09-29T11:20:05.013Z,16.40
2018-09-29T11:22:33.170Z,16.50
2018-09-29T11:25:01.315Z,16.60
2018-09-29T11:27:29.454Z,16.60
2018-09-29T11:29:57.599Z,16.60
2018-09-29T11:32:25.749Z,16.40
2018-09-29T11:34:53.878Z,16.30
2018-09-29T11:37:22.003Z,16.30
2018-09-29T11:39:50.146Z,16.40
2018-09-29T11:42:18.258Z,16.50
2018-09-29T11:44:46.468Z,16.60
2018-09-29T11:47:14.534Z,16.60
2018-09-29T11:49:42.672Z,16.50
2018-09-29T11:52:10.794Z,16.50
2018-09-29T11:54:38.942Z,16.60
2018-09-29T11:57:07.072Z,16.80
2018-09-29T11:59:35.255Z,16.90
2018-09-29T12:02:03.441Z,17.00
2018-09-29T12:04:31.534Z,16.70
2018-09-29T12:06:59.683Z,16.50
2018-09-29T12:09:27.793Z,16.50
2018-09-29T12:11:55.919Z,16.60
2018-09-29T12:14:24.090Z,16.50
2018-09-29T12:16:52.217Z,16.70
2018-09-29T12:19:20.359Z,16.70
2018-09-29T12:21:48.482Z,16.60
2018-09-29T12:24:16.618Z,16.50
2018-09-29T12:26:44.763Z,16.60
2018-09-29T12:29:12.906Z,16.50
2018-09-29T12:31:41.022Z,16.50
2018-09-29T12:34:09.194Z,16.60
2018-09-29T12:36:37.316Z,16.60
2018-09-29T12:39:07.132Z,16.60
2018-09-29T12:41:35.254Z,16.70
2018-09-29T12:44:03.403Z,16.90
2018-09-29T12:46:31.547Z,17.10
2018-09-29T12:48:59.678Z,17.10
2018-09-29T12:51:27.824Z,17.20
2018-09-29T12:53:56.553Z,17.30
2018-09-29T12:56:25.030Z,17.50
2018-09-29T12:58:53.216Z,17.50
2018-09-29T13:01:21.300Z,17.60
2018-09-29T13:03:49.423Z,17.70
2018-09-29T13:06:17.556Z,17.70
2018-09-29T13:08:45.690Z,17.70
2018-09-29T13:11:13.810Z,17.70
2018-09-29T13:13:41.943Z,17.70
2018-09-29T13:16:10.087Z,17.80
2018-09-29T13:18:38.225Z,17.80
2018-09-29T13:21:06.361Z,17.80
2018-09-29T13:23:34.519Z,17.70
2018-09-29T13:26:02.875Z,17.10
2018-09-29T13:28:30.998Z,16.80
2018-09-29T13:30:59.137Z,16.80
2018-09-29T13:33:27.333Z,16.80
2018-09-29T13:35:55.516Z,16.90
2018-09-29T13:38:23.855Z,16.90
2018-09-29T13:40:52.011Z,16.90
2018-09-29T13:43:20.147Z,16.90
2018-09-29T13:45:48.332Z,16.90
2018-09-29T13:48:16.434Z,16.80
2018-09-29T13:50:44.578Z,16.80
2018-09-29T13:53:12.713Z,16.80
2018-09-29T13:55:40.867Z,16.80
2018-09-29T13:58:08.994Z,16.80
2018-09-29T14:00:37.186Z,16.80
2018-09-29T14:03:05.315Z,16.70
2018-09-29T14:05:33.478Z,16.60
2018-09-29T14:08:01.619Z,16.60
2018-09-29T14:10:29.765Z,16.50
2018-09-29T14:12:57.903Z,16.50
2018-09-29T14:15:26.107Z,16.40
2018-09-29T14:17:54.328Z,16.40
2018-09-29T14:20:22.453Z,16.40
2018-09-29T14:22:50.742Z,16.30
2018-09-29T14:25:18.882Z,16.30
2018-09-29T14:27:47.018Z,16.10
2018-09-29T14:30:15.286Z,16.00
2018-09-29T14:32:43.324Z,15.90
2018-09-29T14:35:11.454Z,15.90
2018-09-29T14:37:39.585Z,15.90
2018-09-29T14:40:07.723Z,15.90
2018-09-29T14:42:35.869Z,15.90
2018-09-29T14:45:04.278Z,15.90
2018-09-29T14:47:32.538Z,15.80
2018-09-29T14:50:00.667Z,15.80
2018-09-29T14:52:28.824Z,15.80
2018-09-29T14:54:56.946Z,15.80
2018-09-29T14:57:25.085Z,15.70
2018-09-29T14:59:53.262Z,15.60
2018-09-29T15:02:21.446Z,15.60
2018-09-29T15:04:49.570Z,15.50
2018-09-29T15:07:17.747Z,15.50
2018-09-29T15:09:45.879Z,15.50
2018-09-29T15:12:14.019Z,15.40
2018-09-29T15:14:42.154Z,15.40
2018-09-29T15:17:10.292Z,15.40
2018-09-29T15:19:38.422Z,15.40
2018-09-29T15:22:06.603Z,15.30
2018-09-29T15:24:34.735Z,15.30
2018-09-29T15:27:02.874Z,15.20
2018-09-29T15:29:31.002Z,15.20
2018-09-29T15:31:59.163Z,15.20
2018-09-29T15:34:27.297Z,15.20
2018-09-29T15:36:55.447Z,15.20
2018-09-29T15:39:23.583Z,15.20
2018-09-29T15:41:51.735Z,15.20
2018-09-29T15:44:19.874Z,15.20
2018-09-29T15:46:48.116Z,15.10
2018-09-29T15:49:16.246Z,15.00
2018-09-29T15:51:44.397Z,15.10
2018-09-29T15:54:12.526Z,15.00
2018-09-29T15:56:40.675Z,15.00
2018-09-29T15:59:08.798Z,14.90
2018-09-29T16:01:36.947Z,14.90
2018-09-29T16:04:05.081Z,14.80
2018-09-29T16:06:33.223Z,14.70
2018-09-29T16:09:01.446Z,14.70
2018-09-29T16:11:29.528Z,14.60
2018-09-29T16:13:57.659Z,14.60
2018-09-29T16:16:25.805Z,14.50
2018-09-29T16:18:53.968Z,14.40
2018-09-29T16:21:22.104Z,14.40
2018-09-29T16:23:50.273Z,14.30
2018-09-29T16:26:18.386Z,14.20
2018-09-29T16:28:46.603Z,14.20
2018-09-29T16:31:14.738Z,14.10
2018-09-29T16:33:42.897Z,14.00
2018-09-29T16:36:11.039Z,14.00
2018-09-29T16:38:39.173Z,13.90
2018-09-29T16:41:07.387Z,13.90
2018-09-29T16:43:35.717Z,14.00
2018-09-29T16:46:03.919Z,13.90
2018-09-29T16:48:32.070Z,13.90
2018-09-29T16:51:00.382Z,13.80
2018-09-29T16:53:28.558Z,13.80
2018-09-29T16:55:56.796Z,13.70
2018-09-29T16:58:24.937Z,13.60
2018-09-29T17:00:53.067Z,13.60
2018-09-29T17:03:21.270Z,13.50
2018-09-29T17:05:49.350Z,13.50
2018-09-29T17:08:17.499Z,13.40
2018-09-29T17:10:45.619Z,13.40
2018-09-29T17:13:13.769Z,13.30
2018-09-29T17:15:41.915Z,13.30
2018-09-29T17:18:10.908Z,13.20
2018-09-29T17:20:39.038Z,13.10
2018-09-29T17:23:07.226Z,13.10
2018-09-29T17:25:35.330Z,13.00
2018-09-29T17:28:03.490Z,12.80
2018-09-29T17:30:31.613Z,12.70
2018-09-29T17:32:59.774Z,12.70
2018-09-29T17:35:27.915Z,12.60
2018-09-29T17:37:56.030Z,12.50
2018-09-29T17:40:24.163Z,12.50
2018-09-29T17:42:52.365Z,12.40
2018-09-29T17:45:20.560Z,12.30
2018-09-29T17:47:48.650Z,12.20
2018-09-29T17:50:16.817Z,12.20
2018-09-29T17:52:45.009Z,12.20
2018-09-29T17:55:13.223Z,12.00
2018-09-29T17:57:41.360Z,12.00
2018-09-29T18:00:09.538Z,12.00
2018-09-29T18:02:37.666Z,11.80
2018-09-29T18:05:05.803Z,11.90
2018-09-29T18:07:33.929Z,11.80
2018-09-29T18:10:02.084Z,11.70
2018-09-29T18:12:30.578Z,11.50
2018-09-29T18:14:58.730Z,11.50
2018-09-29T18:17:26.859Z,11.50
2018-09-29T18:19:54.986Z,11.60
2018-09-29T18:22:23.122Z,11.60
2018-09-29T18:24:51.281Z,11.40
2018-09-29T18:27:19.418Z,11.30
2018-09-29T18:29:47.545Z,11.10
2018-09-29T18:32:15.666Z,11.10
2018-09-29T18:34:43.845Z,11.20
2018-09-29T18:37:12.035Z,11.20
2018-09-29T18:39:40.138Z,11.20
2018-09-29T18:42:08.289Z,11.20
2018-09-29T18:44:36.488Z,11.20
2018-09-29T18:47:04.586Z,11.20
2018-09-29T18:49:32.750Z,11.10
2018-09-29T18:52:00.891Z,11.10
2018-09-29T18:54:29.063Z,11.00
2018-09-29T18:56:57.218Z,11.00
2018-09-29T18:59:25.468Z,10.90
2018-09-29T19:01:53.610Z,10.90
2018-09-29T19:04:21.762Z,10.70
2018-09-29T19:06:49.914Z,10.50
2018-09-29T19:09:18.177Z,10.40
2018-09-29T19:11:46.348Z,10.40
2018-09-29T19:14:14.900Z,10.40
2018-09-29T19:16:43.289Z,10.50
2018-09-29T19:19:11.457Z,10.50
2018-09-29T19:21:39.642Z,10.30
2018-09-29T19:24:07.834Z,10.30
2018-09-29T19:26:36.032Z,10.40
2018-09-29T19:29:04.441Z,10.40
2018-09-29T19:31:32.730Z,10.40
2018-09-29T19:34:00.887Z,10.40
2018-09-29T19:36:29.027Z,10.30
2018-09-29T19:38:57.171Z,10.30
2018-09-29T19:41:25.314Z,10.30
2018-09-29T19:43:53.462Z,10.30
2018-09-29T19:46:21.652Z,10.20
2018-09-29T19:48:49.782Z,10.20
2018-09-29T19:51:17.990Z,10.20
2018-09-29T19:53:46.093Z,10.20
2018-09-29T19:56:14.271Z,10.20
2018-09-29T19:58:42.426Z,10.20
2018-09-29T20:01:10.589Z,10.10
2018-09-29T20:03:38.799Z,10.10
2018-09-29T20:06:07.099Z,10.00
2018-09-29T20:08:35.238Z,10.00
2018-09-29T20:11:03.438Z,10.00
2018-09-29T20:13:31.673Z,10.00
2018-09-29T20:15:59.838Z,9.90
2018-09-29T20:18:28.235Z,10.00
2018-09-29T20:20:56.398Z,9.90
2018-09-29T20:23:24.538Z,10.00
2018-09-29T20:25:52.784Z,10.10
2018-09-29T20:28:20.963Z,10.00
2018-09-29T20:30:49.187Z,9.90
2018-09-29T20:33:17.343Z,10.00
2018-09-29T20:35:45.545Z,9.90
2018-09-29T20:38:13.823Z,9.90
2018-09-29T20:40:42.089Z,9.90
2018-09-29T20:43:10.422Z,9.90
2018-09-29T20:45:38.587Z,9.70
2018-09-29T20:48:06.803Z,9.60
2018-09-29T20:50:35.061Z,9.50
2018-09-29T20:53:03.226Z,9.60
2018-09-29T20:55:31.362Z,9.60
2018-09-29T20:57:59.521Z,9.60
2018-09-29T21:00:27.641Z,9.50
2018-09-29T21:02:55.783Z,9.60
2018-09-29T21:05:23.930Z,9.50
2018-09-29T21:07:52.073Z,9.50
2018-09-29T21:10:20.215Z,9.50
2018-09-29T21:12:48.418Z,9.50
2018-09-29T21:15:16.506Z,9.50
2018-09-29T21:17:44.827Z,9.50
2018-09-29T21:20:12.962Z,9.50
2018-09-29T21:22:41.584Z,9.50
2018-09-29T21:25:09.731Z,9.50
2018-09-29T21:27:37.914Z,9.40
2018-09-29T21:30:06.178Z,9.40
2018-09-29T21:32:34.307Z,9.30
2018-09-29T21:35:02.430Z,9.30
2018-09-29T21:37:30.655Z,9.20
2018-09-29T21:39:58.800Z,9.10
2018-09-29T21:42:27.003Z,9.00
2018-09-29T21:44:55.045Z,8.80
2018-09-29T21:47:23.178Z,8.80
2018-09-29T21:49:51.290Z,8.80
2018-09-29T21:52:19.512Z,8.80
2018-09-29T21:54:47.546Z,8.70
2018-09-29T21:57:15.670Z,8.60
2018-09-29T21:59:43.785Z,8.60
2018-09-29T22:02:11.910Z,8.70
2018-09-29T22:04:40.085Z,8.70
2018-09-29T22:07:08.166Z,8.60
2018-09-29T22:09:36.278Z,8.50
2018-09-29T22:12:04.398Z,8.50
2018-09-29T22:14:32.523Z,8.60
2018-09-29T22:17:00.653Z,8.60
2018-09-29T22:19:28.778Z,8.60
2018-09-29T22:21:56.906Z,8.60
2018-09-29T22:24:25.022Z,8.60
2018-09-29T22:26:53.137Z,8.60
2018-09-29T22:29:21.270Z,8.60
2018-09-29T22:31:49.471Z,8.50
2018-09-29T22:34:17.535Z,8.50
2018-09-29T22:36:45.663Z,8.40
2018-09-29T22:39:13.803Z,8.40
2018-09-29T22:41:41.940Z,8.40
2018-09-29T22:44:10.071Z,8.40
2018-09-29T22:46:38.198Z,8.40
2018-09-29T22:49:06.502Z,8.40
2018-09-29T22:51:34.618Z,8.40
2018-09-29T22:54:02.765Z,8.30
2018-09-29T22:56:30.882Z,8.20
2018-09-29T22:58:59.029Z,8.20
2018-09-29T23:01:27.158Z,8.20
2018-09-29T23:03:55.299Z,8.20
2018-09-29T23:06:23.421Z,8.10
2018-09-29T23:08:51.695Z,8.10
2018-09-29T23:11:19.835Z,8.10
2018-09-29T23:13:47.962Z,8.10
2018-09-29T23:16:16.099Z,8.00
2018-09-29T23:18:44.246Z,7.90
2018-09-29T23:21:12.373Z,7.80
2018-09-29T23:23:40.494Z,7.70
2018-09-29T23:26:08.627Z,7.80
2018-09-29T23:28:36.755Z,7.80
2018-09-29T23:31:04.895Z,7.90
2018-09-29T23:33:33.038Z,7.90
2018-09-29T23:36:01.174Z,7.90
2018-09-29T23:38:29.295Z,7.80
2018-09-29T23:40:57.423Z,7.80
2018-09-29T23:43:25.534Z,7.80
2018-09-29T23:45:53.676Z,7.80
2018-09-29T23:48:21.817Z,7.80
2018-09-29T23:50:49.953Z,7.70
2018-09-29T23:53:18.075Z,7.80
2018-09-29T23:55:46.206Z,7.80
2018-09-29T23:58:14.326Z,7.70
